sensor_id;sensor_type;location;lat;lon;timestamp;pressure;altitude;pressure_sealevel;temperature;humidity
42111;BME280;27766;52.174;5.456;2022-10-16T00:01:25;100820.94;;;12.14;100.00
42111;BME280;27766;52.174;5.456;2022-10-16T00:03:52;100823.59;;;12.17;100.00
42111;BME280;27766;52.174;5.456;2022-10-16T00:06:21;100810.56;;;12.16;100.00
42111;BME280;27766;52.174;5.456;2022-10-16T00:08:49;100819.25;;;12.18;100.00
42111;BME280;27766;52.174;5.456;2022-10-16T00:11:24;100817.44;;;12.11;100.00
42111;BME280;27766;52.174;5.456;2022-10-16T00:13:56;100815.69;;;12.08;100.00
42111;BME280;27766;52.174;5.456;2022-10-16T00:16:27;100824.38;;;12.12;100.00
42111;BME280;27766;52.174;5.456;2022-10-16T00:18:54;100828.69;;;12.10;100.00
42111;BME280;27766;52.174;5.456;2022-10-16T00:21:27;100826.00;;;12.03;100.00
42111;BME280;27766;52.174;5.456;2022-10-16T00:24:03;100822.56;;;12.06;100.00
42111;BME280;27766;52.174;5.456;2022-10-16T00:26:32;100823.47;;;12.10;100.00
42111;BME280;27766;52.174;5.456;2022-10-16T00:29:00;100836.44;;;12.07;100.00
42111;BME280;27766;52.174;5.456;2022-10-16T00:31:28;100837.28;;;12.06;100.00
42111;BME280;27766;52.174;5.456;2022-10-16T00:33:55;100827.72;;;12.03;100.00
42111;BME280;27766;52.174;5.456;2022-10-16T00:36:24;100829.47;;;12.02;100.00
42111;BME280;27766;52.174;5.456;2022-10-16T00:38:52;100827.72;;;12.03;100.00
42111;BME280;27766;52.174;5.456;2022-10-16T00:41:23;100822.56;;;12.06;100.00
42111;BME280;27766;52.174;5.456;2022-10-16T00:43:53;100813.84;;;11.99;100.00
42111;BME280;27766;52.174;5.456;2022-10-16T00:46:27;100814.72;;;12.00;100.00
42111;BME280;27766;52.174;5.456;2022-10-16T00:51:39;100816.50;;;12.02;100.00
42111;BME280;27766;52.174;5.456;2022-10-16T00:54:13;100827.75;;;12.06;100.00
42111;BME280;27766;52.174;5.456;2022-10-16T00:56:41;100821.72;;;12.06;100.00
42111;BME280;27766;52.174;5.456;2022-10-16T00:59:30;100817.44;;;12.09;100.00
42111;BME280;27766;52.174;5.456;2022-10-16T01:01:58;100827.81;;;12.11;100.00
42111;BME280;27766;52.174;5.456;2022-10-16T01:04:25;100827.88;;;12.14;100.00
42111;BME280;27766;52.174;5.456;2022-10-16T01:07:12;100826.97;;;12.10;100.00
42111;BME280;27766;52.174;5.456;2022-10-16T01:12:38;100828.84;;;12.22;100.00
42111;BME280;27766;52.174;5.456;2022-10-16T01:20:50;100831.50;;;12.28;100.00
42111;BME280;27766;52.174;5.456;2022-10-16T01:23:31;100834.09;;;12.31;100.00
42111;BME280;27766;52.174;5.456;2022-10-16T01:28:56;100821.16;;;12.36;100.00
42111;BME280;27766;52.174;5.456;2022-10-16T01:31:27;100820.31;;;12.35;100.00
42111;BME280;27766;52.174;5.456;2022-10-16T01:33:59;100821.22;;;12.41;100.00
42111;BME280;27766;52.174;5.456;2022-10-16T01:36:35;100823.88;;;12.44;100.00
42111;BME280;27766;52.174;5.456;2022-10-16T01:39:06;100826.47;;;12.45;100.00
42111;BME280;27766;52.174;5.456;2022-10-16T01:41:39;100818.72;;;12.50;100.00
42111;BME280;27766;52.174;5.456;2022-10-16T01:44:29;100831.72;;;12.51;100.00
42111;BME280;27766;52.174;5.456;2022-10-16T01:46:57;100816.03;;;12.41;100.00
42111;BME280;27766;52.174;5.456;2022-10-16T01:49:31;100833.47;;;12.54;100.00
42111;BME280;27766;52.174;5.456;2022-10-16T01:51:59;100835.22;;;12.57;100.00
42111;BME280;27766;52.174;5.456;2022-10-16T01:54:35;100830.91;;;12.59;100.00
42111;BME280;27766;52.174;5.456;2022-10-16T01:57:05;100823.06;;;12.54;100.00
42111;BME280;27766;52.174;5.456;2022-10-16T01:59:36;100828.31;;;12.57;100.00
42111;BME280;27766;52.174;5.456;2022-10-16T02:02:08;100817.03;;;12.55;100.00
42111;BME280;27766;52.174;5.456;2022-10-16T02:04:39;100804.03;;;12.52;100.00
42111;BME280;27766;52.174;5.456;2022-10-16T02:07:07;100795.28;;;12.42;100.00
42111;BME280;27766;52.174;5.456;2022-10-16T02:09:34;100804.91;;;12.51;100.00
42111;BME280;27766;52.174;5.456;2022-10-16T02:12:08;100798.84;;;12.52;100.00
42111;BME280;27766;52.174;5.456;2022-10-16T02:14:38;100817.03;;;12.52;100.00
42111;BME280;27766;52.174;5.456;2022-10-16T02:17:19;100823.03;;;12.49;100.00
42111;BME280;27766;52.174;5.456;2022-10-16T02:19:48;100818.72;;;12.48;100.00
42111;BME280;27766;52.174;5.456;2022-10-16T02:22:27;100816.97;;;12.49;100.00
42111;BME280;27766;52.174;5.456;2022-10-16T02:24:59;100826.50;;;12.50;100.00
42111;BME280;27766;52.174;5.456;2022-10-16T02:30:28;100834.31;;;12.51;100.00
42111;BME280;27766;52.174;5.456;2022-10-16T02:32:59;100822.13;;;12.43;100.00
42111;BME280;27766;52.174;5.456;2022-10-16T02:35:29;100826.47;;;12.44;100.00
42111;BME280;27766;52.174;5.456;2022-10-16T02:37:57;100829.91;;;12.44;100.00
42111;BME280;27766;52.174;5.456;2022-10-16T02:40:25;100829.91;;;12.41;100.00
42111;BME280;27766;52.174;5.456;2022-10-16T02:42:54;100836.81;;;12.42;100.00
42111;BME280;27766;52.174;5.456;2022-10-16T02:45:23;100842.00;;;12.42;100.00
42111;BME280;27766;52.174;5.456;2022-10-16T02:47:51;100836.75;;;12.36;100.00
42111;BME280;27766;52.174;5.456;2022-10-16T02:50:18;100848.03;;;12.37;100.00
42111;BME280;27766;52.174;5.456;2022-10-16T02:52:45;100845.31;;;12.29;100.00
42111;BME280;27766;52.174;5.456;2022-10-16T02:55:12;100851.41;;;12.29;100.00
42111;BME280;27766;52.174;5.456;2022-10-16T02:57:39;100857.38;;;12.24;100.00
42111;BME280;27766;52.174;5.456;2022-10-16T03:00:09;100853.00;;;12.19;100.00
42111;BME280;27766;52.174;5.456;2022-10-16T03:02:36;100841.75;;;12.19;100.00
42111;BME280;27766;52.174;5.456;2022-10-16T03:05:03;100846.22;;;12.29;100.00
42111;BME280;27766;52.174;5.456;2022-10-16T03:07:30;100853.16;;;12.33;100.00
42111;BME280;27766;52.174;5.456;2022-10-16T03:09:57;100849.66;;;12.31;100.00
42111;BME280;27766;52.174;5.456;2022-10-16T03:12:27;100849.66;;;12.31;100.00
42111;BME280;27766;52.174;5.456;2022-10-16T03:14:55;100845.31;;;12.29;100.00
42111;BME280;27766;52.174;5.456;2022-10-16T03:17:24;100831.50;;;12.31;100.00
42111;BME280;27766;52.174;5.456;2022-10-16T03:19:51;100836.75;;;12.36;100.00
42111;BME280;27766;52.174;5.456;2022-10-16T03:22:18;100837.63;;;12.37;100.00
42111;BME280;27766;52.174;5.456;2022-10-16T03:24:45;100829.78;;;12.32;100.00
42111;BME280;27766;52.174;5.456;2022-10-16T03:27:12;100839.28;;;12.31;100.00
42111;BME280;27766;52.174;5.456;2022-10-16T03:29:39;100842.72;;;12.27;100.00
42111;BME280;27766;52.174;5.456;2022-10-16T03:32:06;100841.81;;;12.25;100.00
42111;BME280;27766;52.174;5.456;2022-10-16T03:34:33;100837.41;;;12.18;100.00
42111;BME280;27766;52.174;5.456;2022-10-16T03:37:00;100853.00;;;12.19;100.00
42111;BME280;27766;52.174;5.456;2022-10-16T03:39:27;100859.03;;;12.17;100.00
42111;BME280;27766;52.174;5.456;2022-10-16T03:41:54;100849.47;;;12.13;100.00
42111;BME280;27766;52.174;5.456;2022-10-16T03:44:21;100860.72;;;12.15;100.00
42111;BME280;27766;52.174;5.456;2022-10-16T03:46:48;100853.81;;;12.14;100.00
42111;BME280;27766;52.174;5.456;2022-10-16T03:49:15;100854.66;;;12.13;100.00
42111;BME280;27766;52.174;5.456;2022-10-16T03:51:42;100867.56;;;12.08;100.00
42111;BME280;27766;52.174;5.456;2022-10-16T03:54:10;100867.56;;;12.08;100.00
42111;BME280;27766;52.174;5.456;2022-10-16T03:56:38;100865.84;;;12.09;100.00
42111;BME280;27766;52.174;5.456;2022-10-16T03:59:05;100860.66;;;12.07;100.00
42111;BME280;27766;52.174;5.456;2022-10-16T04:01:32;100879.59;;;12.01;100.00
42111;BME280;27766;52.174;5.456;2022-10-16T04:03:59;100876.09;;;11.98;100.00
42111;BME280;27766;52.174;5.456;2022-10-16T04:06:26;100864.00;;;11.98;100.00
42111;BME280;27766;52.174;5.456;2022-10-16T04:08:56;100871.69;;;11.94;100.00
42111;BME280;27766;52.174;5.456;2022-10-16T04:11:26;100886.34;;;11.92;100.00
42111;BME280;27766;52.174;5.456;2022-10-16T04:13:54;100882.00;;;11.89;100.00
42111;BME280;27766;52.174;5.456;2022-10-16T04:16:21;100874.16;;;11.86;100.00
42111;BME280;27766;52.174;5.456;2022-10-16T04:18:48;100887.13;;;11.86;100.00
42111;BME280;27766;52.174;5.456;2022-10-16T04:21:15;100883.69;;;11.87;100.00
42111;BME280;27766;52.174;5.456;2022-10-16T04:23:42;100890.69;;;11.91;100.00
42111;BME280;27766;52.174;5.456;2022-10-16T04:26:09;100891.53;;;11.90;100.00
42111;BME280;27766;52.174;5.456;2022-10-16T04:28:37;100897.63;;;11.94;100.00
42111;BME280;27766;52.174;5.456;2022-10-16T04:31:05;100904.53;;;11.93;100.00
42111;BME280;27766;52.174;5.456;2022-10-16T04:33:33;100905.38;;;11.92;100.00
42111;BME280;27766;52.174;5.456;2022-10-16T04:36:02;100903.59;;;11.90;100.00
42111;BME280;27766;52.174;5.456;2022-10-16T04:38:29;100919.16;;;11.86;100.00
42111;BME280;27766;52.174;5.456;2022-10-16T04:40:57;100913.06;;;11.86;100.00
42111;BME280;27766;52.174;5.456;2022-10-16T04:43:25;100925.25;;;11.90;100.00
42111;BME280;27766;52.174;5.456;2022-10-16T04:45:52;100922.59;;;11.87;100.00
42111;BME280;27766;52.174;5.456;2022-10-16T04:48:21;100921.75;;;11.88;100.00
42111;BME280;27766;52.174;5.456;2022-10-16T04:50:48;100922.59;;;11.85;100.00
42111;BME280;27766;52.174;5.456;2022-10-16T04:53:21;100920.78;;;11.80;100.00
42111;BME280;27766;52.174;5.456;2022-10-16T04:55:48;100937.25;;;11.85;100.00
42111;BME280;27766;52.174;5.456;2022-10-16T04:58:15;100932.06;;;11.85;100.00
42111;BME280;27766;52.174;5.456;2022-10-16T05:00:42;100934.66;;;11.83;100.00
42111;BME280;27766;52.174;5.456;2022-10-16T05:03:09;100941.56;;;11.83;100.00
42111;BME280;27766;52.174;5.456;2022-10-16T05:05:36;100938.16;;;11.85;100.00
42111;BME280;27766;52.174;5.456;2022-10-16T05:08:03;100944.25;;;11.87;100.00
42111;BME280;27766;52.174;5.456;2022-10-16T05:10:30;100943.28;;;11.82;100.00
42111;BME280;27766;52.174;5.456;2022-10-16T05:12:59;100950.19;;;11.82;100.00
42111;BME280;27766;52.174;5.456;2022-10-16T05:15:26;100955.38;;;11.82;100.00
42111;BME280;27766;52.174;5.456;2022-10-16T05:17:56;100952.78;;;11.82;100.00
42111;BME280;27766;52.174;5.456;2022-10-16T05:20:26;100967.44;;;11.80;100.00
42111;BME280;27766;52.174;5.456;2022-10-16T05:22:54;100976.97;;;11.79;100.00
42111;BME280;27766;52.174;5.456;2022-10-16T05:25:21;100968.19;;;11.71;100.00
42111;BME280;27766;52.174;5.456;2022-10-16T05:27:48;100962.94;;;11.68;100.00
42111;BME280;27766;52.174;5.456;2022-10-16T05:30:16;100976.75;;;11.65;100.00
42111;BME280;27766;52.174;5.456;2022-10-16T05:32:48;100984.59;;;11.70;100.00
42111;BME280;27766;52.174;5.456;2022-10-16T05:35:16;100975.00;;;11.66;100.00
42111;BME280;27766;52.174;5.456;2022-10-16T05:37:44;100987.25;;;11.75;100.00
42111;BME280;27766;52.174;5.456;2022-10-16T05:40:11;100983.59;;;11.63;100.00
42111;BME280;27766;52.174;5.456;2022-10-16T05:42:40;101000.97;;;11.67;100.00
42111;BME280;27766;52.174;5.456;2022-10-16T05:45:09;101002.75;;;11.70;100.00
42111;BME280;27766;52.174;5.456;2022-10-16T05:47:37;101009.63;;;11.69;100.00
42111;BME280;27766;52.174;5.456;2022-10-16T05:50:04;101012.28;;;11.71;100.00
42111;BME280;27766;52.174;5.456;2022-10-16T05:52:32;101003.59;;;11.69;100.00
42111;BME280;27766;52.174;5.456;2022-10-16T05:54:59;101018.22;;;11.65;100.00
42111;BME280;27766;52.174;5.456;2022-10-16T05:57:26;101027.84;;;11.74;100.00
42111;BME280;27766;52.174;5.456;2022-10-16T05:59:55;101032.22;;;11.77;100.00
42111;BME280;27766;52.174;5.456;2022-10-16T06:02:22;101038.31;;;11.80;100.00
42111;BME280;27766;52.174;5.456;2022-10-16T06:04:51;101036.56;;;11.78;100.00
42111;BME280;27766;52.174;5.456;2022-10-16T06:07:20;101035.78;;;11.82;100.00
42111;BME280;27766;52.174;5.456;2022-10-16T06:09:51;101044.50;;;11.87;100.00
42111;BME280;27766;52.174;5.456;2022-10-16T06:12:18;101041.06;;;11.90;100.00
42111;BME280;27766;52.174;5.456;2022-10-16T06:14:46;101047.16;;;11.90;100.00
42111;BME280;27766;52.174;5.456;2022-10-16T06:17:16;101048.03;;;11.92;100.00
42111;BME280;27766;52.174;5.456;2022-10-16T06:19:43;101051.50;;;11.93;100.00
42111;BME280;27766;52.174;5.456;2022-10-16T06:22:10;101062.66;;;11.88;100.00
42111;BME280;27766;52.174;5.456;2022-10-16T06:24:37;101060.13;;;11.90;100.00
42111;BME280;27766;52.174;5.456;2022-10-16T06:27:04;101046.25;;;11.88;100.00
42111;BME280;27766;52.174;5.456;2022-10-16T06:29:32;101067.94;;;11.93;100.00
42111;BME280;27766;52.174;5.456;2022-10-16T06:31:59;101071.47;;;11.97;100.00
42111;BME280;27766;52.174;5.456;2022-10-16T06:34:26;101080.16;;;11.99;100.00
42111;BME280;27766;52.174;5.456;2022-10-16T06:36:53;101090.56;;;12.00;100.00
42111;BME280;27766;52.174;5.456;2022-10-16T06:39:20;101086.28;;;12.02;100.00
42111;BME280;27766;52.174;5.456;2022-10-16T06:41:47;101069.84;;;12.02;100.00
42111;BME280;27766;52.174;5.456;2022-10-16T06:44:15;101076.88;;;12.09;100.00
42111;BME280;27766;52.174;5.456;2022-10-16T06:46:42;101082.09;;;12.12;100.00
42111;BME280;27766;52.174;5.456;2022-10-16T06:49:09;101083.00;;;12.13;100.00
42111;BME280;27766;52.174;5.456;2022-10-16T06:51:36;101084.75;;;12.17;100.00
42111;BME280;27766;52.174;5.456;2022-10-16T06:54:09;101088.19;;;12.16;100.00
42111;BME280;27766;52.174;5.456;2022-10-16T06:56:36;101060.41;;;12.06;100.00
42111;BME280;27766;52.174;5.456;2022-10-16T06:59:04;101090.84;;;12.19;100.00
42111;BME280;27766;52.174;5.456;2022-10-16T07:01:34;101087.44;;;12.22;100.00
42111;BME280;27766;52.174;5.456;2022-10-16T07:04:02;101086.59;;;12.24;100.00
42111;BME280;27766;52.174;5.456;2022-10-16T07:06:32;101099.50;;;12.18;100.00
42111;BME280;27766;52.174;5.456;2022-10-16T07:09:05;101096.06;;;12.21;100.00
42111;BME280;27766;52.174;5.456;2022-10-16T07:11:33;101095.16;;;12.17;100.00
42111;BME280;27766;52.174;5.456;2022-10-16T07:14:00;101110.88;;;12.26;100.00
42111;BME280;27766;52.174;5.456;2022-10-16T07:16:29;101114.38;;;12.31;100.00
42111;BME280;27766;52.174;5.456;2022-10-16T07:18:58;101122.31;;;12.39;100.00
42111;BME280;27766;52.174;5.456;2022-10-16T07:21:32;101127.53;;;12.42;100.00
42111;BME280;27766;52.174;5.456;2022-10-16T07:24:04;101131.94;;;12.46;100.00
42111;BME280;27766;52.174;5.456;2022-10-16T07:26:34;101134.47;;;12.43;100.00
42111;BME280;27766;52.174;5.456;2022-10-16T07:29:02;101145.75;;;12.44;100.00
42111;BME280;27766;52.174;5.456;2022-10-16T07:31:30;101136.22;;;12.43;100.00
42111;BME280;27766;52.174;5.456;2022-10-16T07:33:59;101142.41;;;12.53;100.00
42111;BME280;27766;52.174;5.456;2022-10-16T07:36:26;101150.25;;;12.56;100.00
42111;BME280;27766;52.174;5.456;2022-10-16T07:38:54;101172.81;;;12.60;100.00
42111;BME280;27766;52.174;5.456;2022-10-16T07:41:26;101163.34;;;12.63;100.00
42111;BME280;27766;52.174;5.456;2022-10-16T07:43:56;101175.47;;;12.63;100.00
42111;BME280;27766;52.174;5.456;2022-10-16T07:46:27;101175.47;;;12.64;100.00
42111;BME280;27766;52.174;5.456;2022-10-16T07:48:54;101180.66;;;12.63;100.00
42111;BME280;27766;52.174;5.456;2022-10-16T07:51:23;101183.97;;;12.54;100.00
42111;BME280;27766;52.174;5.456;2022-10-16T07:53:52;101197.00;;;12.59;100.00
42111;BME280;27766;52.174;5.456;2022-10-16T07:56:20;101210.84;;;12.56;100.00
42111;BME280;27766;52.174;5.456;2022-10-16T07:58:48;101215.09;;;12.51;100.00
42111;BME280;27766;52.174;5.456;2022-10-16T08:01:17;101202.94;;;12.48;100.00
42111;BME280;27766;52.174;5.456;2022-10-16T08:03:47;101208.22;;;12.55;100.00
42111;BME280;27766;52.174;5.456;2022-10-16T08:06:15;101199.59;;;12.56;100.00
42111;BME280;27766;52.174;5.456;2022-10-16T08:08:42;101213.50;;;12.61;100.00
42111;BME280;27766;52.174;5.456;2022-10-16T08:11:10;101218.75;;;12.64;100.00
42111;BME280;27766;52.174;5.456;2022-10-16T08:13:37;101225.81;;;12.73;100.00
42111;BME280;27766;52.174;5.456;2022-10-16T08:16:04;101226.72;;;12.78;100.00
42111;BME280;27766;52.174;5.456;2022-10-16T08:18:38;101221.59;;;12.79;100.00
42111;BME280;27766;52.174;5.456;2022-10-16T08:21:07;101220.75;;;12.82;100.00
42111;BME280;27766;52.174;5.456;2022-10-16T08:23:34;101224.38;;;12.93;100.00
42111;BME280;27766;52.174;5.456;2022-10-16T08:26:05;101235.72;;;12.98;100.00
42111;BME280;27766;52.174;5.456;2022-10-16T08:28:33;101239.31;;;13.08;100.00
42111;BME280;27766;52.174;5.456;2022-10-16T08:31:11;101250.63;;;13.13;100.00
42111;BME280;27766;52.174;5.456;2022-10-16T08:33:40;101238.56;;;13.17;100.00
42111;BME280;27766;52.174;5.456;2022-10-16T08:36:09;101242.91;;;13.20;100.00
42111;BME280;27766;52.174;5.456;2022-10-16T08:38:37;101249.06;;;13.25;100.00
42111;BME280;27766;52.174;5.456;2022-10-16T08:49:18;101268.50;;;13.50;100.00
42111;BME280;27766;52.174;5.456;2022-10-16T08:51:45;101266.78;;;13.52;100.00
42111;BME280;27766;52.174;5.456;2022-10-16T08:54:47;101276.31;;;13.53;100.00
42111;BME280;27766;52.174;5.456;2022-10-16T08:57:19;101278.06;;;13.54;100.00
42111;BME280;27766;52.174;5.456;2022-10-16T08:59:51;101289.44;;;13.63;100.00
42111;BME280;27766;52.174;5.456;2022-10-16T09:07:49;101286.16;;;13.77;100.00
42111;BME280;27766;52.174;5.456;2022-10-16T09:13:40;101302.75;;;13.89;100.00
42111;BME280;27766;52.174;5.456;2022-10-16T09:16:19;101314.91;;;13.88;100.00
42111;BME280;27766;52.174;5.456;2022-10-16T09:18:53;101319.28;;;13.92;100.00
42111;BME280;27766;52.174;5.456;2022-10-16T09:21:28;101318.44;;;13.95;100.00
42111;BME280;27766;52.174;5.456;2022-10-16T09:24:25;101310.69;;;13.98;100.00
42111;BME280;27766;52.174;5.456;2022-10-16T09:26:55;101320.31;;;14.04;100.00
42111;BME280;27766;52.174;5.456;2022-10-16T09:29:22;101319.47;;;14.08;100.00
42111;BME280;27766;52.174;5.456;2022-10-16T09:31:52;101329.19;;;14.23;100.00
42111;BME280;27766;52.174;5.456;2022-10-16T09:34:36;101330.09;;;14.30;100.00
42111;BME280;27766;52.174;5.456;2022-10-16T09:37:09;101327.59;;;14.39;100.00
42111;BME280;27766;52.174;5.456;2022-10-16T09:39:49;101337.34;;;14.59;100.00
42111;BME280;27766;52.174;5.456;2022-10-16T09:42:19;101353.16;;;14.74;100.00
42111;BME280;27766;52.174;5.456;2022-10-16T09:44:48;101334.03;;;14.74;100.00
42111;BME280;27766;52.174;5.456;2022-10-16T09:47:26;101339.19;;;14.69;100.00
42111;BME280;27766;52.174;5.456;2022-10-16T09:50:03;101341.84;;;14.75;100.00
42111;BME280;27766;52.174;5.456;2022-10-16T09:52:33;101348.00;;;14.83;100.00
42111;BME280;27766;52.174;5.456;2022-10-16T09:55:08;101348.97;;;14.93;100.00
42111;BME280;27766;52.174;5.456;2022-10-16T09:57:54;101354.19;;;14.95;100.00
42111;BME280;27766;52.174;5.456;2022-10-16T10:00:26;101354.28;;;15.07;100.00
42111;BME280;27766;52.174;5.456;2022-10-16T10:02:54;101363.00;;;15.11;100.00
42111;BME280;27766;52.174;5.456;2022-10-16T10:05:28;101363.84;;;15.10;100.00
42111;BME280;27766;52.174;5.456;2022-10-16T10:08:02;101368.16;;;15.04;100.00
42111;BME280;27766;52.174;5.456;2022-10-16T10:10:42;101364.75;;;15.10;100.00
42111;BME280;27766;52.174;5.456;2022-10-16T10:13:20;101356.13;;;15.21;100.00
42111;BME280;27766;52.174;5.456;2022-10-16T10:15:47;101360.47;;;15.18;100.00
42111;BME280;27766;52.174;5.456;2022-10-16T10:18:20;101368.31;;;15.26;100.00
42111;BME280;27766;52.174;5.456;2022-10-16T10:21:00;101364.00;;;15.28;100.00
42111;BME280;27766;52.174;5.456;2022-10-16T10:23:29;101371.75;;;15.16;100.00
42111;BME280;27766;52.174;5.456;2022-10-16T10:26:16;101372.59;;;15.16;100.00
42111;BME280;27766;52.174;5.456;2022-10-16T10:28:59;101376.16;;;15.26;100.00
42111;BME280;27766;52.174;5.456;2022-10-16T10:34:18;101386.66;;;15.37;100.00
42111;BME280;27766;52.174;5.456;2022-10-16T10:36:59;101391.09;;;15.54;100.00
42111;BME280;27766;52.174;5.456;2022-10-16T10:39:52;101392.03;;;15.63;100.00
42111;BME280;27766;52.174;5.456;2022-10-16T10:45:26;101399.88;;;15.68;100.00
42111;BME280;27766;52.174;5.456;2022-10-16T10:48:17;101396.41;;;15.67;100.00
42111;BME280;27766;52.174;5.456;2022-10-16T11:07:05;101411.13;;;15.53;100.00
42111;BME280;27766;52.174;5.456;2022-10-16T11:09:41;101413.72;;;15.55;100.00
42111;BME280;27766;52.174;5.456;2022-10-16T11:12:17;101432.88;;;15.57;100.00
42111;BME280;27766;52.174;5.456;2022-10-16T11:15:02;101425.06;;;15.57;100.00
42111;BME280;27766;52.174;5.456;2022-10-16T11:17:39;101432.00;;;15.55;100.00
42111;BME280;27766;52.174;5.456;2022-10-16T11:20:16;101431.91;;;15.45;100.00
42111;BME280;27766;52.174;5.456;2022-10-16T11:22:50;101428.41;;;15.40;100.00
42111;BME280;27766;52.174;5.456;2022-10-16T11:25:25;101433.66;;;15.43;100.00
42111;BME280;27766;52.174;5.456;2022-10-16T11:28:19;101437.13;;;15.44;100.00
42111;BME280;27766;52.174;5.456;2022-10-16T11:30:49;101437.22;;;15.51;100.00
42111;BME280;27766;52.174;5.456;2022-10-16T11:33:22;101433.78;;;15.63;100.00
42111;BME280;27766;52.174;5.456;2022-10-16T11:35:57;101437.34;;;15.73;100.00
42111;BME280;27766;52.174;5.456;2022-10-16T11:38:43;101433.97;;;15.87;100.00
42111;BME280;27766;52.174;5.456;2022-10-16T11:43:48;101444.56;;;16.18;100.00
42111;BME280;27766;52.174;5.456;2022-10-16T11:46:22;101427.19;;;16.29;100.00
42111;BME280;27766;52.174;5.456;2022-10-16T11:49:13;101427.22;;;16.38;100.00
42111;BME280;27766;52.174;5.456;2022-10-16T11:51:47;101446.38;;;16.37;100.00
42111;BME280;27766;52.174;5.456;2022-10-16T11:57:17;101455.84;;;16.10;100.00
42111;BME280;27766;52.174;5.456;2022-10-16T11:59:57;101459.28;;;16.03;100.00
42111;BME280;27766;52.174;5.456;2022-10-16T12:08:23;101450.53;;;15.95;100.00
42111;BME280;27766;52.174;5.456;2022-10-16T12:10:51;101452.34;;;16.07;100.00
42111;BME280;27766;52.174;5.456;2022-10-16T12:13:29;101453.25;;;16.17;100.00
42111;BME280;27766;52.174;5.456;2022-10-16T12:18:40;101455.06;;;16.27;100.00
42111;BME280;27766;52.174;5.456;2022-10-16T12:21:08;101469.03;;;16.37;100.00
42111;BME280;27766;52.174;5.456;2022-10-16T12:23:58;101464.69;;;16.40;100.00
42111;BME280;27766;52.174;5.456;2022-10-16T12:26:38;101474.31;;;16.52;100.00
42111;BME280;27766;52.174;5.456;2022-10-16T12:31:51;101469.13;;;16.61;100.00
42111;BME280;27766;52.174;5.456;2022-10-16T12:34:37;101477.78;;;16.53;100.00
42111;BME280;27766;52.174;5.456;2022-10-16T12:37:33;101479.53;;;16.57;100.00
42111;BME280;27766;52.174;5.456;2022-10-16T12:39:59;101474.28;;;16.54;100.00
42111;BME280;27766;52.174;5.456;2022-10-16T12:42:37;101476.91;;;16.54;100.00
42111;BME280;27766;52.174;5.456;2022-10-16T12:47:54;101483.84;;;16.38;100.00
42111;BME280;27766;52.174;5.456;2022-10-16T12:52:51;101478.59;;;16.32;100.00
42111;BME280;27766;52.174;5.456;2022-10-16T12:55:20;101484.66;;;16.34;100.00
42111;BME280;27766;52.174;5.456;2022-10-16T12:58:14;101484.69;;;16.38;100.00
42111;BME280;27766;52.174;5.456;2022-10-16T13:12:01;101490.81;;;16.46;100.00
42111;BME280;27766;52.174;5.456;2022-10-16T13:18:22;101488.16;;;16.34;100.00
42111;BME280;27766;52.174;5.456;2022-10-16T13:28:21;101505.66;;;16.51;100.00
42111;BME280;27766;52.174;5.456;2022-10-16T13:30:53;101501.28;;;16.45;100.00
42111;BME280;27766;52.174;5.456;2022-10-16T13:33:32;101499.56;;;16.53;100.00
42111;BME280;27766;52.174;5.456;2022-10-16T13:36:00;101509.16;;;16.59;100.00
42111;BME280;27766;52.174;5.456;2022-10-16T13:38:30;101500.50;;;16.66;100.00
42111;BME280;27766;52.174;5.456;2022-10-16T13:41:17;101517.06;;;16.76;100.00
42111;BME280;27766;52.174;5.456;2022-10-16T13:43:49;101522.28;;;16.76;100.00
42111;BME280;27766;52.174;5.456;2022-10-16T13:46:22;101520.53;;;16.75;100.00
42111;BME280;27766;52.174;5.456;2022-10-16T13:49:03;101523.16;;;16.73;100.00
42111;BME280;27766;52.174;5.456;2022-10-16T13:51:31;101517.03;;;16.67;100.00
42111;BME280;27766;52.174;5.456;2022-10-16T13:53:59;101510.94;;;16.69;100.00
42111;BME280;27766;52.174;5.456;2022-10-16T13:56:28;101517.03;;;16.71;100.00
42111;BME280;27766;52.174;5.456;2022-10-16T13:59:02;101516.16;;;16.66;100.00
42111;BME280;27766;52.174;5.456;2022-10-16T14:01:39;101524.91;;;16.70;100.00
42111;BME280;27766;52.174;5.456;2022-10-16T14:04:09;101524.88;;;16.73;100.00
42111;BME280;27766;52.174;5.456;2022-10-16T14:06:41;101524.91;;;16.70;100.00
42111;BME280;27766;52.174;5.456;2022-10-16T14:09:20;101536.19;;;16.64;100.00
42111;BME280;27766;52.174;5.456;2022-10-16T14:11:51;101526.59;;;16.63;100.00
42111;BME280;27766;52.174;5.456;2022-10-16T14:14:20;101531.81;;;16.65;100.00
42111;BME280;27766;52.174;5.456;2022-10-16T14:16:47;101529.19;;;16.60;100.00
42111;BME280;27766;52.174;5.456;2022-10-16T14:19:35;101526.59;;;16.63;100.00
42111;BME280;27766;52.174;5.456;2022-10-16T14:22:02;101529.16;;;16.54;100.00
42111;BME280;27766;52.174;5.456;2022-10-16T14:24:31;101524.84;;;16.56;100.00
42111;BME280;27766;52.174;5.456;2022-10-16T14:27:00;101526.59;;;16.57;100.00
42111;BME280;27766;52.174;5.456;2022-10-16T14:29:29;101524.84;;;16.60;100.00
42111;BME280;27766;52.174;5.456;2022-10-16T14:32:22;101522.22;;;16.62;100.00
42111;BME280;27766;52.174;5.456;2022-10-16T14:34:54;101518.72;;;16.52;100.00
42111;BME280;27766;52.174;5.456;2022-10-16T14:37:34;101518.69;;;16.49;100.00
42111;BME280;27766;52.174;5.456;2022-10-16T14:40:02;101523.03;;;16.45;100.00
42111;BME280;27766;52.174;5.456;2022-10-16T14:42:29;101523.00;;;16.41;100.00